createdAt,value
2018-07-17T00:00:27.717Z,17.2
2018-07-17T00:01:26.955Z,17.2
2018-07-17T00:02:26.284Z,17.2
2018-07-17T00:03:25.398Z,17.3
2018-07-17T00:04:24.733Z,17.3
2018-07-17T00:05:23.968Z,17.3
2018-07-17T00:06:23.294Z,17.3
2018-07-17T00:07:22.524Z,17.3
2018-07-17T00:08:22.253Z,17.4
2018-07-17T00:09:25.002Z,17.4
2018-07-17T00:10:20.589Z,17.4
2018-07-17T00:11:20.536Z,17.4
2018-07-17T00:12:19.256Z,17.4
2018-07-17T00:13:19.091Z,17.4
2018-07-17T00:14:19.853Z,17.4
2018-07-17T00:15:17.676Z,17.3
2018-07-17T00:16:16.896Z,17.3
2018-07-17T00:17:16.119Z,17.3
2018-07-17T00:18:15.449Z,17.3
2018-07-17T00:18:47.402Z,17.3
2018-07-17T00:20:14.247Z,17.3
2018-07-17T00:21:13.579Z,17.3
2018-07-17T00:22:13.014Z,17.2
2018-07-17T00:24:12.069Z,17.3
2018-07-17T00:25:10.791Z,17.3
2018-07-17T00:26:09.915Z,17.2
2018-07-17T00:27:09.541Z,17.3
2018-07-17T00:28:08.915Z,17.3
2018-07-17T00:29:08.349Z,17.2
2018-07-17T00:30:07.590Z,17.2
2018-07-17T00:31:06.926Z,17.2
2018-07-17T00:32:06.151Z,17.2
2018-07-17T00:33:05.772Z,17.2
2018-07-17T00:34:18.779Z,17.2
2018-07-17T00:34:35.118Z,17.2
2018-07-17T00:35:12.895Z,17.4
2018-07-17T00:36:03.466Z,17.4
2018-07-17T00:37:03.205Z,17.4
2018-07-17T00:38:03.864Z,17.3
2018-07-17T00:39:01.468Z,17.3
2018-07-17T00:40:01.312Z,17.3
2018-07-17T00:41:01.783Z,17.3
2018-07-17T00:42:00.000Z,17.4
2018-07-17T00:42:59.121Z,17.4
2018-07-17T00:43:59.541Z,17.4
2018-07-17T00:44:57.861Z,17.4
2018-07-17T00:45:56.976Z,17.4
2018-07-17T00:46:59.819Z,17.4
2018-07-17T00:47:55.730Z,17.3
2018-07-17T00:48:54.740Z,17.2
2018-07-17T00:49:54.486Z,17.2
2018-07-17T00:50:53.916Z,17.2
2018-07-17T00:51:53.029Z,17.2
2018-07-17T00:52:52.653Z,17.2
2018-07-17T00:53:51.987Z,17.5
2018-07-17T00:54:59.034Z,17.6
2018-07-17T00:55:50.313Z,17.5
2018-07-17T00:56:50.149Z,17.5
2018-07-17T00:57:49.085Z,17.5
2018-07-17T00:58:48.526Z,17.4
2018-07-17T00:59:18.563Z,17.4
2018-07-17T00:59:49.101Z,17.4
2018-07-17T01:00:19.636Z,17.4
2018-07-17T01:01:46.644Z,17.3
2018-07-17T01:02:45.648Z,17.3
2018-07-17T01:03:45.378Z,17.2
2018-07-17T01:04:58.693Z,17.2
2018-07-17T01:05:43.985Z,17.2
2018-07-17T01:06:43.413Z,17.2
2018-07-17T01:07:42.638Z,17.2
2018-07-17T01:08:56.945Z,17.1
2018-07-17T01:09:41.071Z,17.1
2018-07-17T01:10:40.397Z,17.1
2018-07-17T01:11:11.045Z,17.1
2018-07-17T01:12:39.483Z,17
2018-07-17T01:13:09.628Z,17
2018-07-17T01:13:40.161Z,17
2018-07-17T01:14:38.403Z,17
2018-07-17T01:15:37.282Z,16.9
2018-07-17T01:16:36.723Z,16.9
2018-07-17T01:17:37.361Z,16.9
2018-07-17T01:18:38.464Z,16.9
2018-07-17T01:19:34.906Z,16.9
2018-07-17T01:20:33.841Z,16.9
2018-07-17T01:21:32.956Z,16.8
2018-07-17T01:23:31.672Z,16.8
2018-07-17T01:24:30.898Z,16.8
2018-07-17T01:25:30.842Z,16.8
2018-07-17T01:27:34.589Z,16.7
2018-07-17T01:28:28.383Z,16.7
2018-07-17T01:29:27.898Z,16.7
2018-07-17T01:30:27.857Z,16.7
2018-07-17T01:31:26.578Z,16.7
2018-07-17T01:32:26.016Z,16.7
2018-07-17T01:33:25.453Z,16.6
2018-07-17T01:34:32.826Z,16.6
2018-07-17T01:35:24.115Z,16.6
2018-07-17T01:36:30.469Z,16.7
2018-07-17T01:37:22.742Z,16.7
2018-07-17T01:37:52.776Z,16.7
2018-07-17T01:38:23.631Z,16.7
2018-07-17T01:39:21.309Z,16.7
2018-07-17T01:40:20.753Z,16.7
2018-07-17T01:41:20.189Z,16.7
2018-07-17T01:42:18.913Z,16.8
2018-07-17T01:43:18.851Z,16.8
2018-07-17T01:44:17.782Z,16.8
2018-07-17T01:45:17.224Z,16.8
2018-07-17T01:46:30.549Z,16.8
2018-07-17T01:47:22.999Z,16.8
2018-07-17T01:48:15.278Z,16.8
2018-07-17T01:48:47.017Z,16.8
2018-07-17T01:49:16.264Z,16.8
2018-07-17T01:50:13.682Z,16.8
2018-07-17T01:51:13.241Z,16.8
2018-07-17T01:52:12.687Z,16.8
2018-07-17T01:53:11.908Z,16.9
2018-07-17T01:54:11.350Z,16.9
2018-07-17T01:56:09.748Z,16.8
2018-07-17T01:57:09.079Z,16.8
2018-07-17T01:57:39.396Z,16.8
2018-07-17T01:58:09.823Z,16.8
2018-07-17T01:59:07.648Z,16.8
2018-07-17T02:00:07.079Z,16.8
2018-07-17T02:01:06.207Z,16.8
2018-07-17T02:02:05.537Z,16.8
2018-07-17T02:03:04.679Z,16.8
2018-07-17T02:04:07.457Z,16.8
2018-07-17T02:05:03.781Z,16.7
2018-07-17T02:06:03.012Z,16.7
2018-07-17T02:07:03.461Z,16.7
2018-07-17T02:08:09.042Z,16.7
2018-07-17T02:09:00.928Z,16.7
2018-07-17T02:10:00.382Z,16.7
2018-07-17T02:10:59.500Z,16.6
2018-07-17T02:11:58.839Z,16.6
2018-07-17T02:12:58.170Z,16.6
2018-07-17T02:13:57.390Z,16.6
2018-07-17T02:14:56.722Z,16.6
2018-07-17T02:15:56.056Z,16.5
2018-07-17T02:16:56.718Z,16.5
2018-07-17T02:17:56.770Z,16.5
2018-07-17T02:18:55.067Z,16.5
2018-07-17T02:19:53.190Z,16.5
2018-07-17T02:20:52.920Z,16.5
2018-07-17T02:21:52.152Z,16.5
2018-07-17T02:22:51.381Z,16.5
2018-07-17T02:23:50.769Z,16.5
2018-07-17T02:24:49.994Z,16.5
2018-07-17T02:25:49.431Z,16.5
2018-07-17T02:26:48.765Z,16.5
2018-07-17T02:27:50.245Z,16.5
2018-07-17T02:28:47.457Z,16.5
2018-07-17T02:29:46.779Z,16.6
2018-07-17T02:30:17.422Z,16.6
2018-07-17T02:30:48.784Z,16.7
2018-07-17T02:31:18.531Z,16.7
2018-07-17T02:31:48.678Z,16.7
2018-07-17T02:32:19.748Z,16.7
2018-07-17T02:33:44.260Z,16.7
2018-07-17T02:34:42.992Z,16.7
2018-07-17T02:35:42.835Z,16.7
2018-07-17T02:36:42.222Z,16.8
2018-07-17T02:37:40.949Z,16.9
2018-07-17T02:38:40.469Z,16.9
2018-07-17T02:39:39.722Z,16.9
2018-07-17T02:40:39.562Z,16.9
2018-07-17T02:41:38.501Z,16.9
2018-07-17T02:42:37.952Z,16.9
2018-07-17T02:43:37.097Z,16.9
2018-07-17T02:44:36.322Z,17
2018-07-17T02:45:36.051Z,16.9
2018-07-17T02:46:35.279Z,16.9
2018-07-17T02:47:34.629Z,16.9
2018-07-17T02:48:33.963Z,16.8
2018-07-17T02:49:04.726Z,16.8
2018-07-17T02:49:34.871Z,16.8
2018-07-17T02:50:05.417Z,16.8
2018-07-17T02:51:32.055Z,16.8
2018-07-17T02:52:30.880Z,16.8
2018-07-17T02:53:30.226Z,16.8
2018-07-17T02:54:29.961Z,16.7
2018-07-17T02:55:29.291Z,16.7
2018-07-17T02:56:29.636Z,16.7
2018-07-17T02:57:27.741Z,16.6
2018-07-17T02:58:26.981Z,16.6
2018-07-17T02:59:33.105Z,16.6
